createdAt,value
2019-04-11T00:00:03.513Z,64.74
2019-04-11T00:03:33.753Z,64.83
2019-04-11T00:07:04.228Z,64.94
2019-04-11T00:10:35.475Z,65.04
2019-04-11T00:14:05.623Z,65.15
2019-04-11T00:17:36.284Z,65.23
2019-04-11T00:21:06.831Z,65.32
2019-04-11T00:24:36.941Z,65.42
2019-04-11T00:28:07.776Z,65.53
2019-04-11T00:31:38.962Z,65.59
2019-04-11T00:35:11.181Z,65.69
2019-04-11T00:38:42.264Z,65.77
2019-04-11T00:42:12.538Z,65.82
2019-04-11T00:45:43.541Z,65.89
2019-04-11T00:49:14.427Z,65.98
2019-04-11T00:52:45.441Z,66.05
2019-04-11T00:56:15.766Z,66.12
2019-04-11T00:59:46.784Z,66.2
2019-04-11T01:00:15.868Z,66.21
2019-04-11T01:03:45.928Z,66.29
2019-04-11T01:07:16.537Z,66.35
2019-04-11T01:10:47.703Z,66.43
2019-04-11T01:14:17.948Z,66.5
2019-04-11T01:17:48.122Z,66.59
2019-04-11T01:21:18.290Z,66.65
2019-04-11T01:24:48.479Z,66.73
2019-04-11T01:28:18.744Z,66.78
2019-04-11T01:31:52.156Z,66.84
2019-04-11T01:35:23.441Z,66.89
2019-04-11T01:38:56.921Z,66.96
2019-04-11T01:42:27.212Z,67.01
2019-04-11T01:45:57.979Z,67.06
2019-04-11T01:49:28.358Z,67.12
2019-04-11T01:52:58.483Z,67.14
2019-04-11T01:56:29.398Z,67.2
2019-04-11T01:59:59.687Z,67.23
2019-04-11T02:03:45.500Z,67.28
2019-04-11T02:07:15.720Z,67.31
2019-04-11T02:10:45.743Z,67.36
2019-04-11T02:14:17.830Z,67.41
2019-04-11T02:17:50.830Z,67.44
2019-04-11T02:21:21.921Z,67.46
2019-04-11T02:24:59.093Z,67.5
2019-04-11T02:28:29.196Z,67.52
2019-04-11T02:32:02.940Z,67.55
2019-04-11T02:35:37.374Z,67.59
2019-04-11T02:39:12.921Z,67.63
2019-04-11T02:42:47.580Z,67.68
2019-04-11T02:46:22.956Z,67.71
2019-04-11T02:49:59.986Z,67.75
2019-04-11T02:53:32.035Z,67.79
2019-04-11T02:57:03.220Z,67.82
2019-04-11T03:00:15.986Z,67.86
2019-04-11T03:03:47.672Z,67.88
2019-04-11T03:07:17.722Z,67.89
2019-04-11T03:10:49.137Z,67.94
2019-04-11T03:14:20.644Z,67.97
2019-04-11T03:17:54.996Z,68.02
2019-04-11T03:21:32.756Z,68.04
2019-04-11T03:25:08.465Z,68.09
2019-04-11T03:28:40.762Z,68.13
2019-04-11T03:36:50.590Z,68.21
2019-04-11T03:41:00.362Z,68.27
2019-04-11T03:44:47.289Z,68.32
2019-04-11T03:48:33.854Z,68.36
2019-04-11T03:52:12.492Z,68.38
2019-04-11T03:55:43.456Z,68.42
2019-04-11T03:59:16.337Z,68.44
2019-04-11T04:02:47.308Z,68.49
2019-04-11T04:06:19.173Z,68.51
2019-04-11T04:09:51.064Z,68.54
2019-04-11T04:13:22.785Z,68.56
2019-04-11T04:17:04.079Z,68.61
2019-04-11T04:20:51.276Z,68.67
2019-04-11T04:24:28.787Z,68.68
2019-04-11T04:28:03.077Z,68.72
2019-04-11T04:31:34.867Z,68.75
2019-04-11T04:35:07.209Z,68.79
2019-04-11T04:38:41.547Z,68.83
2019-04-11T04:42:23.509Z,68.86
2019-04-11T04:46:12.117Z,68.94
2019-04-11T04:49:54.321Z,68.98
2019-04-11T04:53:27.690Z,69.04
2019-04-11T04:56:58.449Z,69.09
2019-04-11T05:00:16.240Z,69.16
2019-04-11T05:03:46.853Z,69.2
2019-04-11T05:07:19.356Z,69.28
2019-04-11T05:10:51.136Z,69.33
2019-04-11T05:14:23.148Z,69.4
2019-04-11T05:17:53.455Z,69.45
2019-04-11T05:21:23.658Z,69.51
2019-04-11T05:24:55.528Z,69.56
2019-04-11T05:28:26.148Z,69.65
2019-04-11T05:31:56.732Z,69.67
2019-04-11T05:35:27.010Z,69.76
2019-04-11T05:38:58.313Z,69.81
2019-04-11T05:42:29.184Z,69.86
2019-04-11T05:46:00.259Z,69.91
2019-04-11T05:50:37.043Z,69.96
2019-04-11T05:54:08.826Z,70
2019-04-11T05:57:43.062Z,70.03
2019-04-11T06:01:20.343Z,70.05
2019-04-11T06:04:57.772Z,70.05
2019-04-11T06:08:30.259Z,70.06
2019-04-11T06:12:11.640Z,70.08
2019-04-11T06:15:44.365Z,70.06
2019-04-11T06:19:24.937Z,70.09
2019-04-11T06:23:03.329Z,70.09
2019-04-11T06:27:55.698Z,70.09
2019-04-11T06:33:49.583Z,70.08
2019-04-11T06:37:38.145Z,70.06
2019-04-11T06:41:16.684Z,70.03
2019-04-11T06:44:54.881Z,70.03
2019-04-11T06:48:35.853Z,70
2019-04-11T06:52:08.457Z,69.95
2019-04-11T06:55:48.927Z,69.91
2019-04-11T06:59:23.958Z,69.86
2019-04-11T07:00:16.965Z,69.86
2019-04-11T07:03:53.182Z,69.81
2019-04-11T07:07:27.075Z,69.82
2019-04-11T07:11:02.955Z,69.77
2019-04-11T07:14:40.189Z,69.73
2019-04-11T07:18:52.750Z,69.72
2019-04-11T07:25:08.956Z,69.7
2019-04-11T07:29:29.384Z,69.68
2019-04-11T07:33:14.206Z,69.65
2019-04-11T07:37:19.392Z,69.63
2019-04-11T07:41:00.669Z,69.59
2019-04-11T07:44:32.285Z,69.56
2019-04-11T07:48:10.741Z,69.53
2019-04-11T07:51:45.766Z,69.47
2019-04-11T07:55:19.209Z,69.37
2019-04-11T07:58:52.355Z,69.3
2019-04-11T08:03:55.784Z,69.22
2019-04-11T08:08:38.881Z,69.12
2019-04-11T08:12:12.910Z,69.08
2019-04-11T08:18:04.198Z,69.03
2019-04-11T08:23:54.806Z,69.01
2019-04-11T08:27:31.592Z,68.96
2019-04-11T08:31:19.967Z,68.94
2019-04-11T08:34:58.297Z,68.9
2019-04-11T08:38:30.425Z,68.84
2019-04-11T08:42:14.983Z,68.77
2019-04-11T08:45:50.677Z,68.64
2019-04-11T08:49:29.089Z,68.51
2019-04-11T08:53:13.184Z,68.35
2019-04-11T08:56:43.319Z,68.15
2019-04-11T09:01:22.136Z,67.96
2019-04-11T09:05:15.775Z,67.69
2019-04-11T09:09:11.172Z,67.45
2019-04-11T09:12:46.946Z,67.22
2019-04-11T09:17:24.576Z,67.02
2019-04-11T09:23:14.400Z,66.58
2019-04-11T09:27:58.554Z,66.35
2019-04-11T09:38:40.209Z,65.53
2019-04-11T09:42:32.798Z,65.27
2019-04-11T09:46:26.345Z,65.02
2019-04-11T09:49:57.963Z,64.72
2019-04-11T09:53:28.591Z,64.46
2019-04-11T09:57:18.536Z,64.19
2019-04-11T10:01:06.209Z,63.89
2019-04-11T10:04:36.501Z,63.62
2019-04-11T10:09:11.539Z,63.33
2019-04-11T10:13:21.528Z,62.99
2019-04-11T10:18:05.476Z,62.65
2019-04-11T10:21:35.966Z,62.31
2019-04-11T10:25:17.134Z,62.04
2019-04-11T10:29:02.251Z,61.77
2019-04-11T10:32:36.094Z,61.53
2019-04-11T10:36:21.108Z,61.28
2019-04-11T10:42:39.480Z,60.93
2019-04-11T10:46:21.538Z,60.78
2019-04-11T10:51:10.889Z,60.64
2019-04-11T10:54:42.040Z,60.52
2019-04-11T10:58:18.389Z,60.45
2019-04-11T11:00:22.984Z,60.42
2019-04-11T11:04:01.143Z,60.39
2019-04-11T11:07:32.954Z,60.32
2019-04-11T11:11:08.220Z,60.24
2019-04-11T11:15:13.619Z,60.16
2019-04-11T11:21:07.477Z,60.04
2019-04-11T11:25:17.781Z,59.97
2019-04-11T11:32:31.670Z,59.87
2019-04-11T11:36:22.038Z,59.82
2019-04-11T11:44:44.733Z,59.73
2019-04-11T11:48:31.168Z,59.71
2019-04-11T11:52:34.470Z,59.68
2019-04-11T11:56:05.473Z,59.69
2019-04-11T11:59:42.844Z,59.68
2019-04-11T12:03:29.372Z,59.69
2019-04-11T12:07:05.472Z,59.73
2019-04-11T12:10:44.110Z,59.8
2019-04-11T12:15:32.970Z,59.88
2019-04-11T12:19:16.209Z,60.03
2019-04-11T12:22:51.822Z,60.16
2019-04-11T12:26:22.692Z,60.31
2019-04-11T12:30:13.329Z,60.46
2019-04-11T12:34:30.308Z,60.63
2019-04-11T12:38:06.069Z,60.82
2019-04-11T12:41:52.285Z,61
2019-04-11T12:47:48.770Z,61.25
2019-04-11T12:54:00.612Z,61.54
2019-04-11T12:57:56.214Z,61.69
2019-04-11T13:00:29.467Z,61.83
2019-04-11T13:04:33.237Z,62.01
2019-04-11T13:09:16.774Z,62.19
2019-04-11T13:14:01.785Z,62.44
2019-04-11T13:17:35.124Z,62.7
2019-04-11T13:21:09.961Z,62.9
2019-04-11T13:24:46.995Z,63.12
2019-04-11T13:28:17.188Z,63.31
2019-04-11T13:32:55.706Z,63.48
2019-04-11T13:36:36.991Z,63.74
2019-04-11T13:41:45.915Z,64.03
2019-04-11T13:45:16.700Z,64.23
2019-04-11T13:49:55.654Z,64.46
2019-04-11T13:55:48.970Z,64.88
2019-04-11T14:01:40.235Z,65.26
2019-04-11T14:05:11.282Z,65.49
2019-04-11T14:08:51.538Z,65.68
2019-04-11T14:12:21.833Z,65.92
2019-04-11T14:15:55.490Z,66.07
2019-04-11T14:20:14.398Z,66.25
2019-04-11T14:23:58.364Z,66.48
2019-04-11T14:27:28.789Z,66.68
2019-04-11T14:31:08.786Z,66.85
2019-04-11T14:37:06.596Z,67.07
2019-04-11T14:44:03.220Z,67.35
2019-04-11T14:48:52.273Z,67.56
2019-04-11T14:52:32.902Z,67.69
2019-04-11T14:56:07.069Z,67.82
2019-04-11T14:59:41.698Z,67.95
2019-04-11T15:00:24.238Z,67.96
2019-04-11T15:04:31.611Z,68.07
2019-04-11T15:08:01.814Z,68.2
2019-04-11T15:11:50.649Z,68.33
2019-04-11T15:16:11.093Z,68.46
2019-04-11T15:19:43.025Z,68.59
2019-04-11T15:23:19.946Z,68.71
2019-04-11T15:29:45.941Z,68.88
2019-04-11T15:33:48.783Z,69.01
2019-04-11T15:37:30.439Z,69.1
2019-04-11T15:41:01.216Z,69.21
2019-04-11T15:46:51.762Z,69.36
2019-04-11T15:51:30.673Z,69.45
2019-04-11T15:58:48.817Z,69.7
2019-04-11T16:03:36.395Z,69.83
2019-04-11T16:07:54.752Z,69.94
2019-04-11T16:11:52.574Z,70.06
2019-04-11T16:15:23.289Z,70.19
2019-04-11T16:20:03.211Z,70.26
2019-04-11T16:23:49.744Z,70.4
2019-04-11T16:27:44.820Z,70.51
2019-04-11T16:31:15.059Z,70.65
2019-04-11T16:34:51.732Z,70.79
2019-04-11T16:38:25.569Z,70.89
2019-04-11T16:42:00.093Z,71.02
2019-04-11T16:45:54.613Z,71.19
2019-04-11T16:49:25.960Z,71.33
2019-04-11T16:52:56.995Z,71.46
2019-04-11T16:56:27.169Z,71.56
2019-04-11T16:59:58.356Z,71.69
2019-04-11T17:00:20.332Z,71.69
2019-04-11T17:03:54.846Z,71.84
2019-04-11T17:07:34.723Z,71.97
2019-04-11T17:11:08.606Z,72.07
2019-04-11T17:14:38.810Z,72.21
2019-04-11T17:18:09.018Z,72.28
2019-04-11T17:21:43.377Z,72.39
2019-04-11T17:25:13.816Z,72.51
2019-04-11T17:28:44.069Z,72.6
2019-04-11T17:32:14.334Z,72.69
2019-04-11T17:35:44.555Z,72.83
2019-04-11T17:39:14.882Z,72.92
2019-04-11T17:42:45.093Z,73.02
2019-04-11T17:46:15.323Z,73.14
2019-04-11T17:49:45.598Z,73.26
2019-04-11T17:53:15.856Z,73.36
2019-04-11T17:56:46.076Z,73.48
2019-04-11T18:00:29.513Z,73.59
2019-04-11T18:04:00.109Z,73.71
2019-04-11T18:07:30.229Z,73.84
2019-04-11T18:11:00.421Z,73.95
2019-04-11T18:14:31.629Z,74.07
2019-04-11T18:18:03.184Z,74.21
2019-04-11T18:21:37.150Z,74.31
2019-04-11T18:25:08.776Z,74.44
2019-04-11T18:28:39.028Z,74.54
2019-04-11T18:32:44.892Z,74.64
2019-04-11T18:36:15.283Z,74.75
2019-04-11T18:39:45.562Z,74.84
2019-04-11T18:43:16.427Z,74.92
2019-04-11T18:46:47.248Z,75.01
2019-04-11T18:50:17.544Z,75.1
2019-04-11T18:53:47.791Z,75.17
2019-04-11T18:57:17.861Z,75.27
2019-04-11T19:00:17.429Z,75.32
2019-04-11T19:03:48.671Z,75.37
2019-04-11T19:07:27.659Z,75.45
2019-04-11T19:10:58.475Z,75.5
2019-04-11T19:14:28.733Z,75.58
2019-04-11T19:18:06.270Z,75.66
2019-04-11T19:21:37.159Z,75.74
2019-04-11T19:25:11.827Z,75.79
2019-04-11T19:28:42.666Z,75.87
2019-04-11T19:32:12.820Z,75.94
2019-04-11T19:35:43.063Z,76.04
2019-04-11T19:39:14.527Z,76.08
2019-04-11T19:42:48.905Z,76.14
2019-04-11T19:46:20.377Z,76.2
2019-04-11T19:49:51.232Z,76.26
2019-04-11T19:53:21.295Z,76.31
2019-04-11T19:57:07.609Z,76.39
2019-04-11T20:00:37.731Z,76.47
2019-04-11T20:04:08.733Z,76.56
2019-04-11T20:07:38.824Z,76.64
2019-04-11T20:11:09.008Z,76.73
2019-04-11T20:14:39.107Z,76.84
2019-04-11T20:18:09.187Z,76.94
2019-04-11T20:21:39.270Z,77.03
2019-04-11T20:25:09.405Z,77.17
2019-04-11T20:28:39.459Z,77.27
2019-04-11T20:32:09.677Z,77.37
2019-04-11T20:35:40.091Z,77.45
2019-04-11T20:39:14.999Z,77.56
2019-04-11T20:42:45.904Z,77.67
2019-04-11T20:46:16.117Z,77.79
2019-04-11T20:49:48.859Z,77.89
2019-04-11T20:53:18.972Z,77.97
2019-04-11T20:56:48.985Z,78.06
2019-04-11T21:00:16.101Z,78.14
2019-04-11T21:03:46.084Z,78.23
2019-04-11T21:07:17.238Z,78.34
2019-04-11T21:10:47.326Z,78.46
2019-04-11T21:14:17.403Z,78.54
2019-04-11T21:17:47.392Z,78.67
2019-04-11T21:21:17.580Z,78.73
2019-04-11T21:24:47.681Z,78.85
2019-04-11T21:28:17.919Z,78.93
2019-04-11T21:31:48.149Z,79.05
2019-04-11T21:35:18.487Z,79.16
2019-04-11T21:38:48.480Z,79.25
2019-04-11T21:42:18.569Z,79.36
2019-04-11T21:45:48.647Z,79.44
2019-04-11T21:49:18.885Z,79.54
2019-04-11T21:52:49.024Z,79.64
2019-04-11T21:56:19.374Z,79.71
2019-04-11T21:59:51.538Z,79.81
2019-04-11T22:03:24.340Z,79.9
2019-04-11T22:06:55.055Z,80.04
2019-04-11T22:10:26.255Z,80.12
2019-04-11T22:13:56.340Z,80.23
2019-04-11T22:17:26.481Z,80.32
2019-04-11T22:20:56.566Z,80.42
2019-04-11T22:24:26.745Z,80.52
2019-04-11T22:27:56.759Z,80.62
2019-04-11T22:31:26.937Z,80.7
2019-04-11T22:34:59.071Z,80.81
2019-04-11T22:38:30.963Z,80.92
2019-04-11T22:42:01.601Z,81.04
2019-04-11T22:45:31.722Z,81.08
2019-04-11T22:49:01.722Z,81.16
2019-04-11T22:52:31.847Z,81.27
2019-04-11T22:56:01.926Z,81.37
2019-04-11T22:59:31.965Z,81.45
2019-04-11T23:00:15.884Z,81.48
2019-04-11T23:03:49.460Z,81.56
2019-04-11T23:07:19.540Z,81.61
2019-04-11T23:10:49.756Z,81.67
2019-04-11T23:14:19.884Z,81.73
2019-04-11T23:17:50.045Z,81.79
2019-04-11T23:21:20.163Z,81.88
2019-04-11T23:24:50.221Z,81.92
2019-04-11T23:28:20.379Z,81.99
2019-04-11T23:31:51.257Z,82.05
2019-04-11T23:35:21.797Z,82.1
2019-04-11T23:38:52.646Z,82.19
2019-04-11T23:42:23.582Z,82.25
2019-04-11T23:45:53.739Z,82.32
2019-04-11T23:49:25.207Z,82.39
2019-04-11T23:52:57.880Z,82.47
2019-04-11T23:56:30.524Z,82.52
